Terminal Aerodrome Forecast
Issued by NWS

Home | Current Version | Previous Version | Text Only | Print | Product List | Glossary On
Versions: 1 2 3 4 5 6 7 8 9 10 11 12 13 14 15 16 17 18 19 20 21 22 23 24
000
FTUS43 KGRR 172341
TAFAZO
TAF
KAZO 172341Z 1800/1824 16010G16KT P6SM -SHRA BKN050
     FM180100 16012G20KT 5SM -SHRA BR VCTS OVC025CB
     FM180400 18011KT 4SM -RA OVC025
     FM180500 19009KT 2SM -DZ BR OVC004
     FM180900 16003KT 1 1/2SM -DZ BR OVC004
     FM181500 01008KT 1/2SM -RA FG OVC002
     FM182200 34018G25KT 1 1/2SM -RASN BR OVC007=

USA.gov is the U.S. government's official web portal to all federal, state and local government web resources and services.